Goliah — WDD5908 — position and weather

sailwx.info

Track history (hours):
 
Tides and Currents Weather Stations Pressure Air Temp Water Temp Dewpoint Dewpoint Depression Visibility Wind Speed Wind Dir Waves Ship Positions

Goliah

Owner: Crowley Marine Services, Seattle, WA. More information available from US FCC via Universal Licensing System and Coast Guard Vessel Documentation Center.

Last reported at 2017-Apr-24 08:48 UTC. Time now 2017-Apr-25 00:46 UTC.
Position N 33°43' W 118°11'.

Length 33 m; draft 4.8 m.

Type: Tug. MMSI: 366898250.

Date/timePositionNaut miles runAvg speedWind from/ knotsBaromVisibWave heightAir tempDewpointWater temp
2017-Apr-24 08:48N 33°43' W 118°11'3 0.7
2017-Apr-24 04:48N 33°45' W 118°13'3 1.6
2017-Apr-24 03:10N 33°43' W 118°14'1 8.8
2017-Apr-24 03:01N 33°43' W 118°16'2 4.8
2017-Apr-24 02:29N 33°46' W 118°17'0 0.5
2017-Apr-24 01:40N 33°46' W 118°16'1 4.5
2017-Apr-24 01:30N 33°45' W 118°16'1 1.7
2017-Apr-24 01:00N 33°44' W 118°17'0 0.0
2017-Apr-24 00:30N 33°44' W 118°17'0 0.0
2017-Apr-24 00:00N 33°44' W 118°17'0 0.0
2017-Apr-23 23:30N 33°44' W 118°17'0 0.0
2017-Apr-23 23:00N 33°44' W 118°17'0 0.0
2017-Apr-23 22:24N 33°44' W 118°17'0 0.0
2017-Apr-23 22:00N 33°44' W 118°17'0 0.0
2017-Apr-23 21:30N 33°44' W 118°17'0 0.0
2017-Apr-23 19:27N 33°44' W 118°17'0 0.0
2017-Apr-23 18:39N 33°44' W 118°17'0 0.0
2017-Apr-23 18:30N 33°44' W 118°17'0 0.0
2017-Apr-23 16:49N 33°44' W 118°17'0 0.0
2017-Apr-23 16:05N 33°44' W 118°17'0 0.0
2017-Apr-23 16:00N 33°44' W 118°17'0 0.0
2017-Apr-23 15:30N 33°44' W 118°17'0 0.0
2017-Apr-23 14:59N 33°44' W 118°17'0 0.0
2017-Apr-23 14:00N 33°44' W 118°17'0 0.0
2017-Apr-23 13:30N 33°44' W 118°17'1 1.5
2017-Apr-23 13:00N 33°44' W 118°16'1 2.4
2017-Apr-23 12:30N 33°44' W 118°15'1 1.2
2017-Apr-23 12:00N 33°44' W 118°16'2 3.9
2017-Apr-23 11:30N 33°42' W 118°14'2 4.5
2017-Apr-23 11:00N 33°44' W 118°16'1 1.6
2017-Apr-23 10:30N 33°44' W 118°17'0 0.0
2017-Apr-23 10:00N 33°44' W 118°17'0 0.0
2017-Apr-23 09:30N 33°44' W 118°17'0 0.0
2017-Apr-23 09:00N 33°44' W 118°17'0 0.0
2017-Apr-23 08:30N 33°44' W 118°17'0 0.0
2017-Apr-23 08:00N 33°44' W 118°17'0 0.0
2017-Apr-23 07:30N 33°44' W 118°17'0 0.0
2017-Apr-23 07:00N 33°44' W 118°17'0 0.0
2017-Apr-23 06:30N 33°44' W 118°17'0 0.0
2017-Apr-23 06:00N 33°44' W 118°17'0 0.0
2017-Apr-23 05:30N 33°44' W 118°17'0 0.0
2017-Apr-23 05:00N 33°44' W 118°17'0 0.0
2017-Apr-23 04:30N 33°44' W 118°17'0 0.0
2017-Apr-23 04:00N 33°44' W 118°17'0 0.0
2017-Apr-23 03:30N 33°44' W 118°17'0 0.0
2017-Apr-23 03:01N 33°44' W 118°17'0 0.0
2017-Apr-23 02:30N 33°44' W 118°17'0 0.0
2017-Apr-23 02:00N 33°44' W 118°17'0 0.0
2017-Apr-23 01:30N 33°44' W 118°17'2 3.1
2017-Apr-23 00:59N 33°46' W 118°16'0 0.3
2017-Apr-23 00:30N 33°46' W 118°16'0 0.1
2017-Apr-23 00:00N 33°46' W 118°16'1 1.2
2017-Apr-22 23:30N 33°45' W 118°16'1 1.7
2017-Apr-22 23:00N 33°44' W 118°17'0 0.0
2017-Apr-22 22:30N 33°44' W 118°17'0 0.0
2017-Apr-22 22:00N 33°44' W 118°17'0 0.0
2017-Apr-22 21:30N 33°44' W 118°17'0 0.0
2017-Apr-22 21:00N 33°44' W 118°17'0 0.0
2017-Apr-22 20:30N 33°44' W 118°17'0 0.0
2017-Apr-22 20:00N 33°44' W 118°17'0 0.0
2017-Apr-22 19:30N 33°44' W 118°17'0 0.0
2017-Apr-22 19:00N 33°44' W 118°17'0 0.0
2017-Apr-22 18:30N 33°44' W 118°17'0 0.0
2017-Apr-22 18:00N 33°44' W 118°17'0 0.0
2017-Apr-22 17:30N 33°44' W 118°17'0 0.0
2017-Apr-22 17:00N 33°44' W 118°17'0 0.0
2017-Apr-22 16:30N 33°44' W 118°17'0 0.0
2017-Apr-22 16:00N 33°44' W 118°17'3 6.2
2017-Apr-22 15:30N 33°43' W 118°13'1 2.4
2017-Apr-22 15:00N 33°44' W 118°13'2 4.0
2017-Apr-22 14:30N 33°46' W 118°13'0 0.3
2017-Apr-22 13:30N 33°46' W 118°13'3 5.2
2017-Apr-22 13:00N 33°44' W 118°13'3 5.5
2017-Apr-22 12:30N 33°44' W 118°17'0 0.1
2017-Apr-22 12:00N 33°44' W 118°17'0 0.0
2017-Apr-22 11:30N 33°44' W 118°17'0 0.0
2017-Apr-22 11:00N 33°44' W 118°17'0 0.0
2017-Apr-22 10:30N 33°44' W 118°17'0 0.0
2017-Apr-22 10:00N 33°44' W 118°17'0 0.0
2017-Apr-22 09:30N 33°44' W 118°17'0 0.0
2017-Apr-22 08:58N 33°44' W 118°17'0 0.0
2017-Apr-22 08:30N 33°44' W 118°17'0 0.0
2017-Apr-22 07:41N 33°44' W 118°17'0 0.0
2017-Apr-22 07:28N 33°44' W 118°17'0 0.0
2017-Apr-22 07:00N 33°44' W 118°17'0 0.0
2017-Apr-22 06:30N 33°44' W 118°17'0 0.0
2017-Apr-22 06:00N 33°44' W 118°17'0 0.0
2017-Apr-22 05:30N 33°44' W 118°17'0 0.0
2017-Apr-22 05:00N 33°44' W 118°17'0 0.0
2017-Apr-22 04:30N 33°44' W 118°17'0 0.0
2017-Apr-22 04:01N 33°44' W 118°17'0 0.0
2017-Apr-22 03:29N 33°44' W 118°17'0 0.0
2017-Apr-22 02:45N 33°44' W 118°17'0 0.0
2017-Apr-22 02:30N 33°44' W 118°17'0 0.0
2017-Apr-22 02:00N 33°44' W 118°17'0 0.0
2017-Apr-22 01:30N 33°44' W 118°17'0 0.0
2017-Apr-22 01:00N 33°44' W 118°17'0 0.0
2017-Apr-22 00:30N 33°44' W 118°17'0 0.0
2017-Apr-21 23:31N 33°44' W 118°17'0 0.1
2017-Apr-21 23:26N 33°44' W 118°17'2 4.0
2017-Apr-21 22:58N 33°43' W 118°15'3 6.4
2017-Apr-21 22:29N 33°45' W 118°13'1 2.2
2017-Apr-21 22:00N 33°46' W 118°13'0 0.1
2017-Apr-21 21:30N 33°46' W 118°13'3 6.1
2017-Apr-21 21:00N 33°43' W 118°14'3 2.5
2017-Apr-21 19:54N 33°44' W 118°17'0 0.0
2017-Apr-21 17:20N 33°44' W 118°17'0 0.0
2017-Apr-21 16:59N 33°44' W 118°17'0 0.0
2017-Apr-21 16:24N 33°44' W 118°17'0 0.0
2017-Apr-21 15:24N 33°44' W 118°17'0 0.0
2017-Apr-21 14:58N 33°44' W 118°17'1 1.7
2017-Apr-21 14:29N 33°44' W 118°16'3 3.3
2017-Apr-21 13:26N 33°45' W 118°12'1 2.2
2017-Apr-21 12:47N 33°44' W 118°11'1 3.9
2017-Apr-21 12:30N 33°44' W 118°10'1 1.7
2017-Apr-21 12:00N 33°44' W 118°11'2 2.5
2017-Apr-21 11:24N 33°45' W 118°12'0 0.9
2017-Apr-21 10:55N 33°45' W 118°13'0 0.2
2017-Apr-21 10:27N 33°45' W 118°13'0 0.0
2017-Apr-21 09:37N 33°45' W 118°13'0 0.0
2017-Apr-21 09:25N 33°45' W 118°13'0 0.0
2017-Apr-21 08:35N 33°45' W 118°13'0 0.1
2017-Apr-21 08:28N 33°45' W 118°13'0 0.0
2017-Apr-21 07:58N 33°45' W 118°13'0 0.0
2017-Apr-21 07:29N 33°45' W 118°13'0 0.0
2017-Apr-21 06:57N 33°45' W 118°13'0 0.0
2017-Apr-21 06:30N 33°45' W 118°13'0 0.0
2017-Apr-21 06:00N 33°45' W 118°13'0 0.0
2017-Apr-21 05:30N 33°45' W 118°13'1 1.4
2017-Apr-21 05:00N 33°45' W 118°12'0 0.9
2017-Apr-21 04:30N 33°45' W 118°13'0 0.6
2017-Apr-21 04:00N 33°45' W 118°13'0 0.0
2017-Apr-21 03:31N 33°45' W 118°13'0 0.0
2017-Apr-21 03:00N 33°45' W 118°13'0 0.0
2017-Apr-21 02:30N 33°45' W 118°13'0 0.0
2017-Apr-21 02:00N 33°45' W 118°13'0 0.0
2017-Apr-21 01:29N 33°45' W 118°13'0 0.4
2017-Apr-21 00:54N 33°45' W 118°13'0 0.3
2017-Apr-21 00:29N 33°45' W 118°13'2 4.0
2017-Apr-21 00:00N 33°43' W 118°14'3 5.2
2017-Apr-20 23:30N 33°45' W 118°16'2 3.4
2017-Apr-20 23:00N 33°46' W 118°15'1 1.4
2017-Apr-20 22:30N 33°45' W 118°16'1 2.7
2017-Apr-20 22:00N 33°44' W 118°17'0 0.0
2017-Apr-20 21:30N 33°44' W 118°17'0 0.0
2017-Apr-20 21:00N 33°44' W 118°17'0 0.0
2017-Apr-20 20:30N 33°44' W 118°17'0 0.0
2017-Apr-20 20:00N 33°44' W 118°17'0 0.3
2017-Apr-20 19:29N 33°44' W 118°17'3 6.6
2017-Apr-20 19:00N 33°43' W 118°13'1 2.0
2017-Apr-20 18:31N 33°44' W 118°13'2 2.2
2017-Apr-20 17:29N 33°46' W 118°13'4 0.7
2017-Apr-20 11:14N 33°43' W 118°16'2 6.3
2017-Apr-20 10:58N 33°44' W 118°17'0 0.0
2017-Apr-20 10:15N 33°44' W 118°17'0 0.0
2017-Apr-20 09:33N 33°44' W 118°17'0 0.0
2017-Apr-20 09:26N 33°44' W 118°17'0 0.3
2017-Apr-20 09:00N 33°45' W 118°17'2 3.4
2017-Apr-20 08:25N 33°46' W 118°15'1 1.4
2017-Apr-20 07:58N 33°46' W 118°16'2 3.9
2017-Apr-20 07:30N 33°44' W 118°16'2 3.7
2017-Apr-20 07:00N 33°43' W 118°15'2 2.8
2017-Apr-20 06:20N 33°44' W 118°17'1 1.4
2017-Apr-20 05:58N 33°44' W 118°17'0 0.0
2017-Apr-20 05:31N 33°44' W 118°17'0 0.0
2017-Apr-20 05:00N 33°44' W 118°17'0 0.0
2017-Apr-20 04:30N 33°44' W 118°17'0 0.0
2017-Apr-20 04:00N 33°44' W 118°17'0 0.0
2017-Apr-20 03:30N 33°44' W 118°17'0 0.0
2017-Apr-20 03:00N 33°44' W 118°17'0 0.0
2017-Apr-20 02:30N 33°44' W 118°17'0 0.0
2017-Apr-20 02:00N 33°44' W 118°17'0 0.0
2017-Apr-20 01:31N 33°44' W 118°17'0 0.0
2017-Apr-20 01:00N 33°44' W 118°17'0 0.7
2017-Apr-20 00:30N 33°44' W 118°17'3 5.6
2017-Apr-20 00:00N 33°44' W 118°13'2 4.5
2017-Apr-19 23:30N 33°46' W 118°13'1 2.9
2017-Apr-19 23:00N 33°45' W 118°14'0 0.3
2017-Apr-19 22:29N 33°45' W 118°14'1 1.1
2017-Apr-19 22:00N 33°45' W 118°13'2 4.1
2017-Apr-19 21:27N 33°44' W 118°11'1 2.5
2017-Apr-19 21:00N 33°44' W 118°12'3 0.2
2017-Apr-19 05:21N 33°44' W 118°17'0 0.0
2017-Apr-19 04:56N 33°44' W 118°17'0 0.0
2017-Apr-19 04:21N 33°44' W 118°17'0 0.0
2017-Apr-19 04:00N 33°44' W 118°17'0 0.0
2017-Apr-19 03:30N 33°44' W 118°17'0 0.0
2017-Apr-19 03:00N 33°44' W 118°17'0 0.0
2017-Apr-19 02:20N 33°44' W 118°17'0 0.0
2017-Apr-19 02:00N 33°44' W 118°17'0 0.0
2017-Apr-19 01:30N 33°44' W 118°17'0 0.0
2017-Apr-18 22:49N 33°44' W 118°17'0 0.0
2017-Apr-18 21:39N 33°44' W 118°17'0 0.0
2017-Apr-18 21:30N 33°44' W 118°17'0 0.0
2017-Apr-18 21:00N 33°44' W 118°17'1 2.1
2017-Apr-18 20:30N 33°45' W 118°16'0 0.4
2017-Apr-18 20:01N 33°45' W 118°16'2 3.7
2017-Apr-18 19:28N 33°43' W 118°16'2 3.4
2017-Apr-18 19:00N 33°43' W 118°14'1 2.9
2017-Apr-18 18:30N 33°43' W 118°16'1 1.9
2017-Apr-18 17:48N 33°44' W 118°17'0 0.0
2017-Apr-18 17:23N 33°44' W 118°17'0 0.0
2017-Apr-18 16:55N 33°44' W 118°17'0 0.0
2017-Apr-18 16:30N 33°44' W 118°17'0 0.0
2017-Apr-18 16:00N 33°44' W 118°17'0 0.0
2017-Apr-18 15:19N 33°44' W 118°17'4 2.0
2017-Apr-18 13:35N 33°45' W 118°12'0 0.1
2017-Apr-18 13:06N 33°45' W 118°12'4 0.2
2017-Apr-17 21:59N 33°44' W 118°17'0 0.0
2017-Apr-17 21:30N 33°44' W 118°17'0 0.0
2017-Apr-17 21:00N 33°44' W 118°17'0 0.0
2017-Apr-17 20:30N 33°44' W 118°17'0 0.0
2017-Apr-17 20:01N 33°44' W 118°17'0 0.0
2017-Apr-17 19:30N 33°44' W 118°17'0 0.0
2017-Apr-17 19:01N 33°44' W 118°17'0 0.0
2017-Apr-17 18:30N 33°44' W 118°17'0 0.0
2017-Apr-17 18:00N 33°44' W 118°17'0 0.0
2017-Apr-17 17:30N 33°44' W 118°17'0 0.0
2017-Apr-17 17:00N 33°44' W 118°17'0 0.5
2017-Apr-17 16:30N 33°44' W 118°17'3 6.3
2017-Apr-17 16:01N 33°43' W 118°13'1 1.0
2017-Apr-17 15:30N 33°44' W 118°13'0 0.2
2017-Apr-17 14:53N 33°44' W 118°13'3 3.0
2017-Apr-17 13:59N 33°46' W 118°13'0 0.9
2017-Apr-17 13:28N 33°46' W 118°13'3 6.6
2017-Apr-17 13:00N 33°43' W 118°14'3 5.2
2017-Apr-17 12:30N 33°44' W 118°17'1 2.5
2017-Apr-17 12:00N 33°46' W 118°17'1 1.3
2017-Apr-17 11:30N 33°45' W 118°16'1 1.1
2017-Apr-17 11:00N 33°44' W 118°17'0 0.0
2017-Apr-17 10:30N 33°44' W 118°17'0 0.0
2017-Apr-17 10:00N 33°44' W 118°17'0 0.0
2017-Apr-17 09:30N 33°44' W 118°17'0 0.0
2017-Apr-17 09:00N 33°44' W 118°17'0 0.0
2017-Apr-17 08:29N 33°44' W 118°17'0 0.0
2017-Apr-17 08:00N 33°44' W 118°17'0 0.0
2017-Apr-17 07:29N 33°44' W 118°17'0 0.0
2017-Apr-17 07:01N 33°44' W 118°17'0 0.0
2017-Apr-17 06:30N 33°44' W 118°17'0 0.0
2017-Apr-17 06:00N 33°44' W 118°17'0 0.0
2017-Apr-17 05:30N 33°44' W 118°17'0 0.0
2017-Apr-17 05:00N 33°44' W 118°17'0 0.0
2017-Apr-17 04:30N 33°44' W 118°17'0 0.0
2017-Apr-17 04:00N 33°44' W 118°17'0 0.0
2017-Apr-17 03:30N 33°44' W 118°17'0 0.0
2017-Apr-17 03:00N 33°44' W 118°17'1 1.7
2017-Apr-17 02:30N 33°44' W 118°16'3 5.9
2017-Apr-17 02:00N 33°44' W 118°13'2 3.6
2017-Apr-17 01:30N 33°46' W 118°13'0 0.5
2017-Apr-17 01:00N 33°46' W 118°14'0 0.4
2017-Apr-17 00:30N 33°46' W 118°13'3 6.5
2017-Apr-17 00:00N 33°43' W 118°14'2 4.7
2017-Apr-16 23:30N 33°44' W 118°17'0 0.0
2017-Apr-16 23:00N 33°44' W 118°17'0 0.0
2017-Apr-16 22:30N 33°44' W 118°17'0 0.0
2017-Apr-16 22:00N 33°44' W 118°17'0 0.0
2017-Apr-16 21:30N 33°44' W 118°17'0 0.0
2017-Apr-16 21:00N 33°44' W 118°17'0 0.0
2017-Apr-16 20:30N 33°44' W 118°17'0 0.0
2017-Apr-16 20:00N 33°44' W 118°17'0 0.0
2017-Apr-16 19:31N 33°44' W 118°17'0 0.0
2017-Apr-16 18:59N 33°44' W 118°17'0 0.0
2017-Apr-16 18:30N 33°44' W 118°17'0 0.0
2017-Apr-16 17:57N 33°44' W 118°17'0 0.0
2017-Apr-16 17:26N 33°44' W 118°17'0 0.0
2017-Apr-16 17:00N 33°44' W 118°17'0 0.0
2017-Apr-16 16:30N 33°44' W 118°17'0 0.0
2017-Apr-16 15:49N 33°44' W 118°17'0 0.0
2017-Apr-16 15:13N 33°44' W 118°17'0 0.0
2017-Apr-16 15:00N 33°44' W 118°17'0 0.0
2017-Apr-16 14:29N 33°44' W 118°17'0 0.0
2017-Apr-16 13:27N 33°44' W 118°17'0 0.0
2017-Apr-16 12:58N 33°44' W 118°17'0 0.0
2017-Apr-16 12:29N 33°44' W 118°17'0 0.0
2017-Apr-16 11:58N 33°44' W 118°17'0 0.0
2017-Apr-16 11:30N 33°44' W 118°17'0 0.0
2017-Apr-16 11:00N 33°44' W 118°17'0 0.0
2017-Apr-16 10:30N 33°44' W 118°17'0 0.7
2017-Apr-16 10:00N 33°44' W 118°17'3 5.7
2017-Apr-16 09:31N 33°44' W 118°13'2 4.2
2017-Apr-16 09:00N 33°46' W 118°13'0 0.8
2017-Apr-16 08:30N 33°46' W 118°14'1 1.2
2017-Apr-16 08:00N 33°46' W 118°13'1 1.9
2017-Apr-16 07:30N 33°45' W 118°13'0 0.0
2017-Apr-16 07:00N 33°45' W 118°13'1 2.7
2017-Apr-16 06:30N 33°46' W 118°13'0 0.5
2017-Apr-16 05:57N 33°46' W 118°13'1 1.2
2017-Apr-16 05:30N 33°46' W 118°13'2 4.2
2017-Apr-16 04:59N 33°44' W 118°12'4 7.5
2017-Apr-16 04:30N 33°41' W 118°11'0 0.5
2017-Apr-16 04:00N 33°40' W 118°11'3 6.0
2017-Apr-16 03:31N 33°42' W 118°14'3 6.5
2017-Apr-16 03:00N 33°44' W 118°17'0 0.0
2017-Apr-16 02:30N 33°44' W 118°17'0 0.0
2017-Apr-16 02:00N 33°44' W 118°17'0 0.0
2017-Apr-16 01:29N 33°44' W 118°17'0 0.0
2017-Apr-16 00:56N 33°44' W 118°17'0 0.0
2017-Apr-16 00:30N 33°44' W 118°17'0 0.0
2017-Apr-15 23:58N 33°44' W 118°17'0 0.0
2017-Apr-15 23:16N 33°44' W 118°17'0 0.0
2017-Apr-15 23:00N 33°44' W 118°17'0 0.0
2017-Apr-15 22:30N 33°44' W 118°17'0 0.0
2017-Apr-15 22:00N 33°44' W 118°17'0 0.0
2017-Apr-15 21:30N 33°44' W 118°17'0 0.0
2017-Apr-15 21:00N 33°44' W 118°17'3 5.2
2017-Apr-15 20:30N 33°43' W 118°14'3 5.8
2017-Apr-15 20:00N 33°46' W 118°13'0 0.1
2017-Apr-15 19:31N 33°46' W 118°13'0 0.0
2017-Apr-15 18:57N 33°46' W 118°13'0 0.4
2017-Apr-15 18:30N 33°46' W 118°13'1 2.7
2017-Apr-15 18:00N 33°45' W 118°13'3 5.3
2017-Apr-15 17:24N 33°42' W 118°11'2 2.2
2017-Apr-15 16:40N 33°41' W 118°11'0 1.3
2017-Apr-15 16:31N 33°41' W 118°11'3 6.8
2017-Apr-15 16:00N 33°42' W 118°15'2 2.1
2017-Apr-15 14:50N 33°44' W 118°17'0 0.0
2017-Apr-15 14:00N 33°44' W 118°17'0 0.0
2017-Apr-15 13:29N 33°44' W 118°17'0 0.0
2017-Apr-15 13:00N 33°44' W 118°17'0 0.0
2017-Apr-15 12:30N 33°44' W 118°17'0 0.0
2017-Apr-15 12:00N 33°44' W 118°17'0 0.0
2017-Apr-15 11:30N 33°44' W 118°17'0 0.0
2017-Apr-15 11:00N 33°44' W 118°17'0 0.0
2017-Apr-15 10:31N 33°44' W 118°17'0 0.0
2017-Apr-15 08:08N 33°44' W 118°17'0 0.0
2017-Apr-15 07:48N 33°44' W 118°17'2 5.8
2017-Apr-15 07:30N 33°43' W 118°16'3 6.3
2017-Apr-15 07:00N 33°45' W 118°13'1 1.0
2017-Apr-15 06:30N 33°44' W 118°12'3 6.8
2017-Apr-15 06:00N 33°43' W 118°16'3 5.0
2017-Apr-15 05:30N 33°46' W 118°16'1 1.6
2017-Apr-15 05:00N 33°46' W 118°15'2 4.2
2017-Apr-15 04:27N 33°44' W 118°17'0 0.0
2017-Apr-15 04:00N 33°44' W 118°17'0 0.0
2017-Apr-15 03:30N 33°44' W 118°17'0 0.0
2017-Apr-15 02:59N 33°44' W 118°17'0 0.0
2017-Apr-15 02:30N 33°44' W 118°17'0 0.0
2017-Apr-15 02:00N 33°44' W 118°17'0 0.0
2017-Apr-15 01:30N 33°44' W 118°17'0 0.0
2017-Apr-15 01:00N 33°44' W 118°17'0 0.0
2017-Apr-15 00:31N 33°44' W 118°17'0 0.0
2017-Apr-15 00:00N 33°44' W 118°17'  
Track history (hours):
 
Tides and Currents Weather Stations Pressure Air Temp Water Temp Dewpoint Dewpoint Depression Visibility Wind Speed Wind Dir Waves Ship Positions

Goliah

Owner: Crowley Marine Services, Seattle, WA. More information available from US FCC via Universal Licensing System and Coast Guard Vessel Documentation Center.

Last reported at 2017-Apr-24 08:48 UTC. Time now 2017-Apr-25 00:46 UTC.
Position N 33°43' W 118°11'.

Length 33 m; draft 4.8 m.

Type: Tug. MMSI: 366898250.

Date/timePositionNaut miles runAvg speedWind from/ knotsBaromVisibWave heightAir tempDewpointWater temp
2017-Apr-24 08:48N 33°43' W 118°11'3 0.7
2017-Apr-24 04:48N 33°45' W 118°13'3 1.6
2017-Apr-24 03:10N 33°43' W 118°14'1 8.8
2017-Apr-24 03:01N 33°43' W 118°16'2 4.8
2017-Apr-24 02:29N 33°46' W 118°17'0 0.5
2017-Apr-24 01:40N 33°46' W 118°16'1 4.5
2017-Apr-24 01:30N 33°45' W 118°16'1 1.7
2017-Apr-24 01:00N 33°44' W 118°17'0 0.0
2017-Apr-24 00:30N 33°44' W 118°17'0 0.0
2017-Apr-24 00:00N 33°44' W 118°17'0 0.0
2017-Apr-23 23:30N 33°44' W 118°17'0 0.0
2017-Apr-23 23:00N 33°44' W 118°17'0 0.0
2017-Apr-23 22:24N 33°44' W 118°17'0 0.0
2017-Apr-23 22:00N 33°44' W 118°17'0 0.0
2017-Apr-23 21:30N 33°44' W 118°17'0 0.0
2017-Apr-23 19:27N 33°44' W 118°17'0 0.0
2017-Apr-23 18:39N 33°44' W 118°17'0 0.0
2017-Apr-23 18:30N 33°44' W 118°17'0 0.0
2017-Apr-23 16:49N 33°44' W 118°17'0 0.0
2017-Apr-23 16:05N 33°44' W 118°17'0 0.0
2017-Apr-23 16:00N 33°44' W 118°17'0 0.0
2017-Apr-23 15:30N 33°44' W 118°17'0 0.0
2017-Apr-23 14:59N 33°44' W 118°17'0 0.0
2017-Apr-23 14:00N 33°44' W 118°17'0 0.0
2017-Apr-23 13:30N 33°44' W 118°17'1 1.5
2017-Apr-23 13:00N 33°44' W 118°16'1 2.4
2017-Apr-23 12:30N 33°44' W 118°15'1 1.2
2017-Apr-23 12:00N 33°44' W 118°16'2 3.9
2017-Apr-23 11:30N 33°42' W 118°14'2 4.5
2017-Apr-23 11:00N 33°44' W 118°16'1 1.6
2017-Apr-23 10:30N 33°44' W 118°17'0 0.0
2017-Apr-23 10:00N 33°44' W 118°17'0 0.0
2017-Apr-23 09:30N 33°44' W 118°17'0 0.0
2017-Apr-23 09:00N 33°44' W 118°17'0 0.0
2017-Apr-23 08:30N 33°44' W 118°17'0 0.0
2017-Apr-23 08:00N 33°44' W 118°17'0 0.0
2017-Apr-23 07:30N 33°44' W 118°17'0 0.0
2017-Apr-23 07:00N 33°44' W 118°17'0 0.0
2017-Apr-23 06:30N 33°44' W 118°17'0 0.0
2017-Apr-23 06:00N 33°44' W 118°17'0 0.0
2017-Apr-23 05:30N 33°44' W 118°17'0 0.0
2017-Apr-23 05:00N 33°44' W 118°17'0 0.0
2017-Apr-23 04:30N 33°44' W 118°17'0 0.0
2017-Apr-23 04:00N 33°44' W 118°17'0 0.0
2017-Apr-23 03:30N 33°44' W 118°17'0 0.0
2017-Apr-23 03:01N 33°44' W 118°17'0 0.0
2017-Apr-23 02:30N 33°44' W 118°17'0 0.0
2017-Apr-23 02:00N 33°44' W 118°17'0 0.0
2017-Apr-23 01:30N 33°44' W 118°17'2 3.1
2017-Apr-23 00:59N 33°46' W 118°16'0 0.3
2017-Apr-23 00:30N 33°46' W 118°16'0 0.1
2017-Apr-23 00:00N 33°46' W 118°16'1 1.2
2017-Apr-22 23:30N 33°45' W 118°16'1 1.7
2017-Apr-22 23:00N 33°44' W 118°17'0 0.0
2017-Apr-22 22:30N 33°44' W 118°17'0 0.0
2017-Apr-22 22:00N 33°44' W 118°17'0 0.0
2017-Apr-22 21:30N 33°44' W 118°17'0 0.0
2017-Apr-22 21:00N 33°44' W 118°17'0 0.0
2017-Apr-22 20:30N 33°44' W 118°17'0 0.0
2017-Apr-22 20:00N 33°44' W 118°17'0 0.0
2017-Apr-22 19:30N 33°44' W 118°17'0 0.0
2017-Apr-22 19:00N 33°44' W 118°17'0 0.0
2017-Apr-22 18:30N 33°44' W 118°17'0 0.0
2017-Apr-22 18:00N 33°44' W 118°17'0 0.0
2017-Apr-22 17:30N 33°44' W 118°17'0 0.0
2017-Apr-22 17:00N 33°44' W 118°17'0 0.0
2017-Apr-22 16:30N 33°44' W 118°17'0 0.0
2017-Apr-22 16:00N 33°44' W 118°17'3 6.2
2017-Apr-22 15:30N 33°43' W 118°13'1 2.4
2017-Apr-22 15:00N 33°44' W 118°13'2 4.0
2017-Apr-22 14:30N 33°46' W 118°13'0 0.3
2017-Apr-22 13:30N 33°46' W 118°13'3 5.2
2017-Apr-22 13:00N 33°44' W 118°13'3 5.5
2017-Apr-22 12:30N 33°44' W 118°17'0 0.1
2017-Apr-22 12:00N 33°44' W 118°17'0 0.0
2017-Apr-22 11:30N 33°44' W 118°17'0 0.0
2017-Apr-22 11:00N 33°44' W 118°17'0 0.0
2017-Apr-22 10:30N 33°44' W 118°17'0 0.0
2017-Apr-22 10:00N 33°44' W 118°17'0 0.0
2017-Apr-22 09:30N 33°44' W 118°17'0 0.0
2017-Apr-22 08:58N 33°44' W 118°17'0 0.0
2017-Apr-22 08:30N 33°44' W 118°17'0 0.0
2017-Apr-22 07:41N 33°44' W 118°17'0 0.0
2017-Apr-22 07:28N 33°44' W 118°17'0 0.0
2017-Apr-22 07:00N 33°44' W 118°17'0 0.0
2017-Apr-22 06:30N 33°44' W 118°17'0 0.0
2017-Apr-22 06:00N 33°44' W 118°17'0 0.0
2017-Apr-22 05:30N 33°44' W 118°17'0 0.0
2017-Apr-22 05:00N 33°44' W 118°17'0 0.0
2017-Apr-22 04:30N 33°44' W 118°17'0 0.0
2017-Apr-22 04:01N 33°44' W 118°17'0 0.0
2017-Apr-22 03:29N 33°44' W 118°17'0 0.0
2017-Apr-22 02:45N 33°44' W 118°17'0 0.0
2017-Apr-22 02:30N 33°44' W 118°17'0 0.0
2017-Apr-22 02:00N 33°44' W 118°17'0 0.0
2017-Apr-22 01:30N 33°44' W 118°17'0 0.0
2017-Apr-22 01:00N 33°44' W 118°17'0 0.0
2017-Apr-22 00:30N 33°44' W 118°17'0 0.0
2017-Apr-21 23:31N 33°44' W 118°17'0 0.1
2017-Apr-21 23:26N 33°44' W 118°17'2 4.0
2017-Apr-21 22:58N 33°43' W 118°15'3 6.4
2017-Apr-21 22:29N 33°45' W 118°13'1 2.2
2017-Apr-21 22:00N 33°46' W 118°13'0 0.1
2017-Apr-21 21:30N 33°46' W 118°13'3 6.1
2017-Apr-21 21:00N 33°43' W 118°14'3 2.5
2017-Apr-21 19:54N 33°44' W 118°17'0 0.0
2017-Apr-21 17:20N 33°44' W 118°17'0 0.0
2017-Apr-21 16:59N 33°44' W 118°17'0 0.0
2017-Apr-21 16:24N 33°44' W 118°17'0 0.0
2017-Apr-21 15:24N 33°44' W 118°17'0 0.0
2017-Apr-21 14:58N 33°44' W 118°17'1 1.7
2017-Apr-21 14:29N 33°44' W 118°16'3 3.3
2017-Apr-21 13:26N 33°45' W 118°12'1 2.2
2017-Apr-21 12:47N 33°44' W 118°11'1 3.9
2017-Apr-21 12:30N 33°44' W 118°10'1 1.7
2017-Apr-21 12:00N 33°44' W 118°11'2 2.5
2017-Apr-21 11:24N 33°45' W 118°12'0 0.9
2017-Apr-21 10:55N 33°45' W 118°13'0 0.2
2017-Apr-21 10:27N 33°45' W 118°13'0 0.0
2017-Apr-21 09:37N 33°45' W 118°13'0 0.0
2017-Apr-21 09:25N 33°45' W 118°13'0 0.0
2017-Apr-21 08:35N 33°45' W 118°13'0 0.1
2017-Apr-21 08:28N 33°45' W 118°13'0 0.0
2017-Apr-21 07:58N 33°45' W 118°13'0 0.0
2017-Apr-21 07:29N 33°45' W 118°13'0 0.0
2017-Apr-21 06:57N 33°45' W 118°13'0 0.0
2017-Apr-21 06:30N 33°45' W 118°13'0 0.0
2017-Apr-21 06:00N 33°45' W 118°13'0 0.0
2017-Apr-21 05:30N 33°45' W 118°13'1 1.4
2017-Apr-21 05:00N 33°45' W 118°12'0 0.9
2017-Apr-21 04:30N 33°45' W 118°13'0 0.6
2017-Apr-21 04:00N 33°45' W 118°13'0 0.0
2017-Apr-21 03:31N 33°45' W 118°13'0 0.0
2017-Apr-21 03:00N 33°45' W 118°13'0 0.0
2017-Apr-21 02:30N 33°45' W 118°13'0 0.0
2017-Apr-21 02:00N 33°45' W 118°13'0 0.0
2017-Apr-21 01:29N 33°45' W 118°13'0 0.4
2017-Apr-21 00:54N 33°45' W 118°13'0 0.3
2017-Apr-21 00:29N 33°45' W 118°13'2 4.0
2017-Apr-21 00:00N 33°43' W 118°14'3 5.2
2017-Apr-20 23:30N 33°45' W 118°16'2 3.4
2017-Apr-20 23:00N 33°46' W 118°15'1 1.4
2017-Apr-20 22:30N 33°45' W 118°16'1 2.7
2017-Apr-20 22:00N 33°44' W 118°17'0 0.0
2017-Apr-20 21:30N 33°44' W 118°17'0 0.0
2017-Apr-20 21:00N 33°44' W 118°17'0 0.0
2017-Apr-20 20:30N 33°44' W 118°17'0 0.0
2017-Apr-20 20:00N 33°44' W 118°17'0 0.3
2017-Apr-20 19:29N 33°44' W 118°17'3 6.6
2017-Apr-20 19:00N 33°43' W 118°13'1 2.0
2017-Apr-20 18:31N 33°44' W 118°13'2 2.2
2017-Apr-20 17:29N 33°46' W 118°13'4 0.7
2017-Apr-20 11:14N 33°43' W 118°16'2 6.3
2017-Apr-20 10:58N 33°44' W 118°17'0 0.0
2017-Apr-20 10:15N 33°44' W 118°17'0 0.0
2017-Apr-20 09:33N 33°44' W 118°17'0 0.0
2017-Apr-20 09:26N 33°44' W 118°17'0 0.3
2017-Apr-20 09:00N 33°45' W 118°17'2 3.4
2017-Apr-20 08:25N 33°46' W 118°15'1 1.4
2017-Apr-20 07:58N 33°46' W 118°16'2 3.9
2017-Apr-20 07:30N 33°44' W 118°16'2 3.7
2017-Apr-20 07:00N 33°43' W 118°15'2 2.8
2017-Apr-20 06:20N 33°44' W 118°17'1 1.4
2017-Apr-20 05:58N 33°44' W 118°17'0 0.0
2017-Apr-20 05:31N 33°44' W 118°17'0 0.0
2017-Apr-20 05:00N 33°44' W 118°17'0 0.0
2017-Apr-20 04:30N 33°44' W 118°17'0 0.0
2017-Apr-20 04:00N 33°44' W 118°17'0 0.0
2017-Apr-20 03:30N 33°44' W 118°17'0 0.0
2017-Apr-20 03:00N 33°44' W 118°17'0 0.0
2017-Apr-20 02:30N 33°44' W 118°17'0 0.0
2017-Apr-20 02:00N 33°44' W 118°17'0 0.0
2017-Apr-20 01:31N 33°44' W 118°17'0 0.0
2017-Apr-20 01:00N 33°44' W 118°17'0 0.7
2017-Apr-20 00:30N 33°44' W 118°17'3 5.6
2017-Apr-20 00:00N 33°44' W 118°13'2 4.5
2017-Apr-19 23:30N 33°46' W 118°13'1 2.9
2017-Apr-19 23:00N 33°45' W 118°14'0 0.3
2017-Apr-19 22:29N 33°45' W 118°14'1 1.1
2017-Apr-19 22:00N 33°45' W 118°13'2 4.1
2017-Apr-19 21:27N 33°44' W 118°11'1 2.5
2017-Apr-19 21:00N 33°44' W 118°12'3 0.2
2017-Apr-19 05:21N 33°44' W 118°17'0 0.0
2017-Apr-19 04:56N 33°44' W 118°17'0 0.0
2017-Apr-19 04:21N 33°44' W 118°17'0 0.0
2017-Apr-19 04:00N 33°44' W 118°17'0 0.0
2017-Apr-19 03:30N 33°44' W 118°17'0 0.0
2017-Apr-19 03:00N 33°44' W 118°17'0 0.0
2017-Apr-19 02:20N 33°44' W 118°17'0 0.0
2017-Apr-19 02:00N 33°44' W 118°17'0 0.0
2017-Apr-19 01:30N 33°44' W 118°17'0 0.0
2017-Apr-18 22:49N 33°44' W 118°17'0 0.0
2017-Apr-18 21:39N 33°44' W 118°17'0 0.0
2017-Apr-18 21:30N 33°44' W 118°17'0 0.0
2017-Apr-18 21:00N 33°44' W 118°17'1 2.1
2017-Apr-18 20:30N 33°45' W 118°16'0 0.4
2017-Apr-18 20:01N 33°45' W 118°16'2 3.7
2017-Apr-18 19:28N 33°43' W 118°16'2 3.4
2017-Apr-18 19:00N 33°43' W 118°14'1 2.9
2017-Apr-18 18:30N 33°43' W 118°16'1 1.9
2017-Apr-18 17:48N 33°44' W 118°17'0 0.0
2017-Apr-18 17:23N 33°44' W 118°17'0 0.0
2017-Apr-18 16:55N 33°44' W 118°17'0 0.0
2017-Apr-18 16:30N 33°44' W 118°17'0 0.0
2017-Apr-18 16:00N 33°44' W 118°17'0 0.0
2017-Apr-18 15:19N 33°44' W 118°17'4 2.0
2017-Apr-18 13:35N 33°45' W 118°12'0 0.1
2017-Apr-18 13:06N 33°45' W 118°12'4 0.2
2017-Apr-17 21:59N 33°44' W 118°17'0 0.0
2017-Apr-17 21:30N 33°44' W 118°17'0 0.0
2017-Apr-17 21:00N 33°44' W 118°17'0 0.0
2017-Apr-17 20:30N 33°44' W 118°17'0 0.0
2017-Apr-17 20:01N 33°44' W 118°17'0 0.0
2017-Apr-17 19:30N 33°44' W 118°17'0 0.0
2017-Apr-17 19:01N 33°44' W 118°17'0 0.0
2017-Apr-17 18:30N 33°44' W 118°17'0 0.0
2017-Apr-17 18:00N 33°44' W 118°17'0 0.0
2017-Apr-17 17:30N 33°44' W 118°17'0 0.0
2017-Apr-17 17:00N 33°44' W 118°17'0 0.5
2017-Apr-17 16:30N 33°44' W 118°17'3 6.3
2017-Apr-17 16:01N 33°43' W 118°13'1 1.0
2017-Apr-17 15:30N 33°44' W 118°13'0 0.2
2017-Apr-17 14:53N 33°44' W 118°13'3 3.0
2017-Apr-17 13:59N 33°46' W 118°13'0 0.9
2017-Apr-17 13:28N 33°46' W 118°13'3 6.6
2017-Apr-17 13:00N 33°43' W 118°14'3 5.2
2017-Apr-17 12:30N 33°44' W 118°17'1 2.5
2017-Apr-17 12:00N 33°46' W 118°17'1 1.3
2017-Apr-17 11:30N 33°45' W 118°16'1 1.1
2017-Apr-17 11:00N 33°44' W 118°17'0 0.0
2017-Apr-17 10:30N 33°44' W 118°17'0 0.0
2017-Apr-17 10:00N 33°44' W 118°17'0 0.0
2017-Apr-17 09:30N 33°44' W 118°17'0 0.0
2017-Apr-17 09:00N 33°44' W 118°17'0 0.0
2017-Apr-17 08:29N 33°44' W 118°17'0 0.0
2017-Apr-17 08:00N 33°44' W 118°17'0 0.0
2017-Apr-17 07:29N 33°44' W 118°17'0 0.0
2017-Apr-17 07:01N 33°44' W 118°17'0 0.0
2017-Apr-17 06:30N 33°44' W 118°17'0 0.0
2017-Apr-17 06:00N 33°44' W 118°17'0 0.0
2017-Apr-17 05:30N 33°44' W 118°17'0 0.0
2017-Apr-17 05:00N 33°44' W 118°17'0 0.0
2017-Apr-17 04:30N 33°44' W 118°17'0 0.0
2017-Apr-17 04:00N 33°44' W 118°17'0 0.0
2017-Apr-17 03:30N 33°44' W 118°17'0 0.0
2017-Apr-17 03:00N 33°44' W 118°17'1 1.7
2017-Apr-17 02:30N 33°44' W 118°16'3 5.9
2017-Apr-17 02:00N 33°44' W 118°13'2 3.6
2017-Apr-17 01:30N 33°46' W 118°13'0 0.5
2017-Apr-17 01:00N 33°46' W 118°14'0 0.4
2017-Apr-17 00:30N 33°46' W 118°13'3 6.5
2017-Apr-17 00:00N 33°43' W 118°14'2 4.7
2017-Apr-16 23:30N 33°44' W 118°17'0 0.0
2017-Apr-16 23:00N 33°44' W 118°17'0 0.0
2017-Apr-16 22:30N 33°44' W 118°17'0 0.0
2017-Apr-16 22:00N 33°44' W 118°17'0 0.0
2017-Apr-16 21:30N 33°44' W 118°17'0 0.0
2017-Apr-16 21:00N 33°44' W 118°17'0 0.0
2017-Apr-16 20:30N 33°44' W 118°17'0 0.0
2017-Apr-16 20:00N 33°44' W 118°17'0 0.0
2017-Apr-16 19:31N 33°44' W 118°17'0 0.0
2017-Apr-16 18:59N 33°44' W 118°17'0 0.0
2017-Apr-16 18:30N 33°44' W 118°17'0 0.0
2017-Apr-16 17:57N 33°44' W 118°17'0 0.0
2017-Apr-16 17:26N 33°44' W 118°17'0 0.0
2017-Apr-16 17:00N 33°44' W 118°17'0 0.0
2017-Apr-16 16:30N 33°44' W 118°17'0 0.0
2017-Apr-16 15:49N 33°44' W 118°17'0 0.0
2017-Apr-16 15:13N 33°44' W 118°17'0 0.0
2017-Apr-16 15:00N 33°44' W 118°17'0 0.0
2017-Apr-16 14:29N 33°44' W 118°17'0 0.0
2017-Apr-16 13:27N 33°44' W 118°17'0 0.0
2017-Apr-16 12:58N 33°44' W 118°17'0 0.0
2017-Apr-16 12:29N 33°44' W 118°17'0 0.0
2017-Apr-16 11:58N 33°44' W 118°17'0 0.0
2017-Apr-16 11:30N 33°44' W 118°17'0 0.0
2017-Apr-16 11:00N 33°44' W 118°17'0 0.0
2017-Apr-16 10:30N 33°44' W 118°17'0 0.7
2017-Apr-16 10:00N 33°44' W 118°17'3 5.7
2017-Apr-16 09:31N 33°44' W 118°13'2 4.2
2017-Apr-16 09:00N 33°46' W 118°13'0 0.8
2017-Apr-16 08:30N 33°46' W 118°14'1 1.2
2017-Apr-16 08:00N 33°46' W 118°13'1 1.9
2017-Apr-16 07:30N 33°45' W 118°13'0 0.0
2017-Apr-16 07:00N 33°45' W 118°13'1 2.7
2017-Apr-16 06:30N 33°46' W 118°13'0 0.5
2017-Apr-16 05:57N 33°46' W 118°13'1 1.2
2017-Apr-16 05:30N 33°46' W 118°13'2 4.2
2017-Apr-16 04:59N 33°44' W 118°12'4 7.5
2017-Apr-16 04:30N 33°41' W 118°11'0 0.5
2017-Apr-16 04:00N 33°40' W 118°11'3 6.0
2017-Apr-16 03:31N 33°42' W 118°14'3 6.5
2017-Apr-16 03:00N 33°44' W 118°17'0 0.0
2017-Apr-16 02:30N 33°44' W 118°17'0 0.0
2017-Apr-16 02:00N 33°44' W 118°17'0 0.0
2017-Apr-16 01:29N 33°44' W 118°17'0 0.0
2017-Apr-16 00:56N 33°44' W 118°17'0 0.0
2017-Apr-16 00:30N 33°44' W 118°17'0 0.0
2017-Apr-15 23:58N 33°44' W 118°17'0 0.0
2017-Apr-15 23:16N 33°44' W 118°17'0 0.0
2017-Apr-15 23:00N 33°44' W 118°17'0 0.0
2017-Apr-15 22:30N 33°44' W 118°17'0 0.0
2017-Apr-15 22:00N 33°44' W 118°17'0 0.0
2017-Apr-15 21:30N 33°44' W 118°17'0 0.0
2017-Apr-15 21:00N 33°44' W 118°17'3 5.2
2017-Apr-15 20:30N 33°43' W 118°14'3 5.8
2017-Apr-15 20:00N 33°46' W 118°13'0 0.1
2017-Apr-15 19:31N 33°46' W 118°13'0 0.0
2017-Apr-15 18:57N 33°46' W 118°13'0 0.4
2017-Apr-15 18:30N 33°46' W 118°13'1 2.7
2017-Apr-15 18:00N 33°45' W 118°13'3 5.3
2017-Apr-15 17:24N 33°42' W 118°11'2 2.2
2017-Apr-15 16:40N 33°41' W 118°11'0 1.3
2017-Apr-15 16:31N 33°41' W 118°11'3 6.8
2017-Apr-15 16:00N 33°42' W 118°15'2 2.1
2017-Apr-15 14:50N 33°44' W 118°17'0 0.0
2017-Apr-15 14:00N 33°44' W 118°17'0 0.0
2017-Apr-15 13:29N 33°44' W 118°17'0 0.0
2017-Apr-15 13:00N 33°44' W 118°17'0 0.0
2017-Apr-15 12:30N 33°44' W 118°17'0 0.0
2017-Apr-15 12:00N 33°44' W 118°17'0 0.0
2017-Apr-15 11:30N 33°44' W 118°17'0 0.0
2017-Apr-15 11:00N 33°44' W 118°17'0 0.0
2017-Apr-15 10:31N 33°44' W 118°17'0 0.0
2017-Apr-15 08:08N 33°44' W 118°17'0 0.0
2017-Apr-15 07:48N 33°44' W 118°17'2 5.8
2017-Apr-15 07:30N 33°43' W 118°16'3 6.3
2017-Apr-15 07:00N 33°45' W 118°13'1 1.0
2017-Apr-15 06:30N 33°44' W 118°12'3 6.8
2017-Apr-15 06:00N 33°43' W 118°16'3 5.0
2017-Apr-15 05:30N 33°46' W 118°16'1 1.6
2017-Apr-15 05:00N 33°46' W 118°15'2 4.2
2017-Apr-15 04:27N 33°44' W 118°17'0 0.0
2017-Apr-15 04:00N 33°44' W 118°17'0 0.0
2017-Apr-15 03:30N 33°44' W 118°17'0 0.0
2017-Apr-15 02:59N 33°44' W 118°17'0 0.0
2017-Apr-15 02:30N 33°44' W 118°17'0 0.0
2017-Apr-15 02:00N 33°44' W 118°17'0 0.0
2017-Apr-15 01:30N 33°44' W 118°17'0 0.0
2017-Apr-15 01:00N 33°44' W 118°17'0 0.0
2017-Apr-15 00:31N 33°44' W 118°17'0 0.0
2017-Apr-15 00:00N 33°44' W 118°17'  

Dump ship's entire track history